createdAt,value
2024-02-06T00:02:10.805Z,0.98
2024-02-06T00:05:13.450Z,1.85
2024-02-06T00:08:15.723Z,1.12
2024-02-06T00:11:19.321Z,0.95
2024-02-06T00:14:21.625Z,1.48
2024-02-06T00:17:24.130Z,1.02
2024-02-06T00:20:26.387Z,0.65
2024-02-06T00:23:28.870Z,1.45
2024-02-06T00:26:31.209Z,0.65
2024-02-06T00:29:33.719Z,1.15
2024-02-06T00:32:36.090Z,2.42
2024-02-06T00:35:39.124Z,1.25
2024-02-06T00:38:41.348Z,1.42
2024-02-06T00:41:44.410Z,1.05
2024-02-06T00:44:46.648Z,1.75
2024-02-06T00:47:50.852Z,0.73
2024-02-06T00:50:53.284Z,1.48
2024-02-06T00:53:55.806Z,1.77
2024-02-06T00:56:57.955Z,1.65
2024-02-06T01:00:00.582Z,1.02
2024-02-06T01:03:03.369Z,1.15
2024-02-06T01:06:06.062Z,1.92
2024-02-06T01:09:08.229Z,1.48
2024-02-06T01:12:11.066Z,1.55
2024-02-06T01:15:13.443Z,0.90
2024-02-06T01:18:16.006Z,1.52
2024-02-06T01:21:18.300Z,1.08
2024-02-06T01:24:20.816Z,1.00
2024-02-06T01:27:23.284Z,0.95
2024-02-06T01:30:25.792Z,1.12
2024-02-06T01:33:28.185Z,1.05
2024-02-06T01:36:31.100Z,1.45
2024-02-06T01:39:33.268Z,0.70
2024-02-06T01:42:35.998Z,0.88
2024-02-06T01:45:38.245Z,1.05
2024-02-06T01:48:40.902Z,1.60
2024-02-06T01:51:46.761Z,1.30
2024-02-06T01:54:49.377Z,0.98
2024-02-06T01:57:52.515Z,1.02
2024-02-06T02:00:55.109Z,0.68
2024-02-06T02:03:59.011Z,2.10
2024-02-06T02:07:01.894Z,1.65
2024-02-06T02:10:04.850Z,0.80
2024-02-06T02:13:07.231Z,0.98
2024-02-06T02:16:09.840Z,2.42
2024-02-06T02:19:12.241Z,0.70
2024-02-06T02:22:14.831Z,0.82
2024-02-06T02:25:17.410Z,1.00
2024-02-06T02:28:20.647Z,1.02
2024-02-06T02:31:23.591Z,1.08
2024-02-06T02:34:26.235Z,0.90
2024-02-06T02:37:28.579Z,1.17
2024-02-06T02:40:31.059Z,1.45
2024-02-06T02:43:33.461Z,1.20
2024-02-06T02:46:36.088Z,0.80
2024-02-06T02:49:38.424Z,1.27
2024-02-06T02:52:40.993Z,1.25
2024-02-06T02:55:43.373Z,0.55
2024-02-06T02:58:47.255Z,1.25
2024-02-06T03:01:49.770Z,1.20
2024-02-06T03:04:52.472Z,1.05
2024-02-06T03:07:55.084Z,0.73
2024-02-06T03:10:57.572Z,1.27
2024-02-06T03:13:59.814Z,1.10
2024-02-06T03:17:02.315Z,1.70
2024-02-06T03:20:06.204Z,1.23
2024-02-06T03:23:08.808Z,1.30
2024-02-06T03:26:11.020Z,1.10
2024-02-06T03:29:13.540Z,0.93
2024-02-06T03:32:15.741Z,0.65
2024-02-06T03:35:18.394Z,0.90
2024-02-06T03:38:22.380Z,0.60
2024-02-06T03:41:24.808Z,1.90
2024-02-06T03:44:27.749Z,0.80
2024-02-06T03:47:30.375Z,0.50
2024-02-06T03:50:32.582Z,0.50
2024-02-06T03:53:35.065Z,1.33
2024-02-06T03:56:37.261Z,2.15
2024-02-06T03:59:40.912Z,0.62
2024-02-06T04:02:43.180Z,0.85
2024-02-06T04:05:46.598Z,0.10
2024-02-06T04:08:49.706Z,1.15
2024-02-06T04:11:52.242Z,0.68
2024-02-06T04:14:54.388Z,0.75
2024-02-06T04:17:57.012Z,0.55
2024-02-06T04:20:59.342Z,1.70
2024-02-06T04:24:02.031Z,1.00
2024-02-06T04:27:04.763Z,2.40
2024-02-06T04:30:08.695Z,1.52
2024-02-06T04:33:10.996Z,1.98
2024-02-06T04:36:13.619Z,3.12
2024-02-06T04:39:16.663Z,1.77
2024-02-06T04:42:19.205Z,2.17
2024-02-06T04:45:21.370Z,1.17
2024-02-06T04:48:23.868Z,1.30
2024-02-06T04:51:26.283Z,1.87
2024-02-06T04:54:28.779Z,1.20
2024-02-06T04:57:30.919Z,1.73
2024-02-06T05:00:34.073Z,1.92
2024-02-06T05:03:36.485Z,1.02
2024-02-06T05:06:39.177Z,2.00
2024-02-06T05:09:41.340Z,1.95
2024-02-06T05:12:44.192Z,2.08
2024-02-06T05:15:46.455Z,0.80
2024-02-06T05:18:49.024Z,1.37
2024-02-06T05:21:51.755Z,2.35
2024-02-06T05:24:54.270Z,1.02
2024-02-06T05:27:58.120Z,0.85
2024-02-06T05:31:00.742Z,0.75
2024-02-06T05:34:03.096Z,0.77
2024-02-06T05:37:05.770Z,0.62
2024-02-06T05:40:12.713Z,1.10
2024-02-06T05:43:15.341Z,0.90
2024-02-06T05:46:17.637Z,1.33
2024-02-06T05:49:20.264Z,0.93
2024-02-06T05:52:22.859Z,1.30
2024-02-06T05:55:27.375Z,1.87
2024-02-06T05:58:29.745Z,1.33
2024-02-06T06:01:32.414Z,1.50
2024-02-06T06:04:35.125Z,1.15
2024-02-06T06:07:37.548Z,1.80
2024-02-06T06:10:40.147Z,0.65
2024-02-06T06:13:42.421Z,2.58
2024-02-06T06:16:45.057Z,1.20
2024-02-06T06:19:47.341Z,1.15
2024-02-06T06:22:49.974Z,1.48
2024-02-06T06:25:52.267Z,2.17
2024-02-06T06:28:54.767Z,2.22
2024-02-06T06:31:57.148Z,2.62
2024-02-06T06:34:59.706Z,2.40
2024-02-06T06:38:02.171Z,2.30
2024-02-06T06:41:04.840Z,3.90
2024-02-06T06:44:07.319Z,2.67
2024-02-06T06:47:12.228Z,3.10
2024-02-06T06:50:14.621Z,2.55
2024-02-06T06:53:17.466Z,3.17
2024-02-06T06:56:20.204Z,3.67
2024-02-06T06:59:22.961Z,3.20
2024-02-06T07:02:26.892Z,3.45
2024-02-06T07:05:31.745Z,2.60
2024-02-06T07:08:34.551Z,1.92
2024-02-06T07:11:37.782Z,2.47
2024-02-06T07:14:40.189Z,1.62
2024-02-06T07:17:42.981Z,2.75
2024-02-06T07:20:45.734Z,1.83
2024-02-06T07:23:48.296Z,2.10
2024-02-06T07:26:50.544Z,3.90
2024-02-06T07:29:53.151Z,3.75
2024-02-06T07:32:55.545Z,3.20
2024-02-06T07:35:58.136Z,3.20
2024-02-06T07:39:00.955Z,2.90
2024-02-06T07:42:03.695Z,4.07
2024-02-06T07:45:06.388Z,4.35
2024-02-06T07:48:09.267Z,5.00
2024-02-06T07:51:12.399Z,3.72
2024-02-06T07:54:14.913Z,4.10
2024-02-06T07:57:17.089Z,5.87
2024-02-06T08:00:20.189Z,5.87
2024-02-06T08:03:22.793Z,4.03
2024-02-06T08:06:25.135Z,5.68
2024-02-06T08:09:27.741Z,4.28
2024-02-06T08:12:29.905Z,5.70
2024-02-06T08:15:32.390Z,5.43
2024-02-06T08:18:34.795Z,5.32
2024-02-06T08:21:37.763Z,4.85
2024-02-06T08:24:39.935Z,5.22
2024-02-06T08:27:42.617Z,6.40
2024-02-06T08:30:49.120Z,5.55
2024-02-06T08:33:52.458Z,5.75
2024-02-06T08:36:54.981Z,5.57
2024-02-06T08:39:58.474Z,4.45
2024-02-06T08:43:01.031Z,5.00
2024-02-06T08:46:03.565Z,5.78
2024-02-06T08:49:06.134Z,4.32
2024-02-06T08:52:09.505Z,4.55
2024-02-06T08:55:11.982Z,5.07
2024-02-06T08:58:14.726Z,3.47
2024-02-06T09:01:18.173Z,5.55
2024-02-06T09:04:20.943Z,3.92
2024-02-06T09:07:27.162Z,4.43
2024-02-06T09:10:30.512Z,4.82
2024-02-06T09:13:33.203Z,3.72
2024-02-06T09:16:35.835Z,4.03
2024-02-06T09:19:42.068Z,4.65
2024-02-06T09:22:47.296Z,3.40
2024-02-06T09:25:51.190Z,3.47
2024-02-06T09:28:55.090Z,3.25
2024-02-06T09:31:57.945Z,3.87
2024-02-06T09:35:01.392Z,3.62
2024-02-06T09:38:04.158Z,4.03
2024-02-06T09:41:13.419Z,3.67
2024-02-06T09:44:17.348Z,3.50
2024-02-06T09:47:20.026Z,3.17
2024-02-06T09:50:22.584Z,4.45
2024-02-06T09:53:30.112Z,4.60
2024-02-06T09:59:35.637Z,3.85
2024-02-06T10:02:42.964Z,4.62
2024-02-06T10:05:49.664Z,4.12
2024-02-06T10:08:52.139Z,4.75
2024-02-06T10:11:56.567Z,4.20
2024-02-06T10:14:59.052Z,4.37
2024-02-06T10:18:02.239Z,5.07
2024-02-06T10:21:04.626Z,5.70
2024-02-06T10:24:07.400Z,5.47
2024-02-06T10:27:10.036Z,5.07
2024-02-06T10:30:12.792Z,5.00
2024-02-06T10:33:16.449Z,4.97
2024-02-06T10:36:19.060Z,2.53
2024-02-06T10:39:21.877Z,2.35
2024-02-06T10:42:56.896Z,2.65
2024-02-06T10:45:58.539Z,2.20
2024-02-06T10:49:04.784Z,2.92
2024-02-06T10:52:08.737Z,2.85
2024-02-06T10:55:11.468Z,2.72
2024-02-06T10:58:18.834Z,1.60
2024-02-06T11:01:22.795Z,1.37
2024-02-06T11:04:27.104Z,1.80
2024-02-06T11:07:34.961Z,1.25
2024-02-06T11:10:41.211Z,2.08
2024-02-06T11:13:49.285Z,2.00
2024-02-06T11:16:56.616Z,2.00
2024-02-06T11:20:05.667Z,2.08
2024-02-06T11:23:09.060Z,2.12
2024-02-06T11:26:12.807Z,2.03
2024-02-06T11:29:16.266Z,2.10
2024-02-06T11:32:19.578Z,2.97
2024-02-06T11:35:29.078Z,3.00
2024-02-06T11:38:31.706Z,2.72
2024-02-06T11:41:34.072Z,3.17
2024-02-06T11:44:36.523Z,2.72
2024-02-06T11:47:40.310Z,2.50
2024-02-06T11:50:45.001Z,3.40
2024-02-06T11:53:47.407Z,2.53
2024-02-06T11:56:51.242Z,2.67
2024-02-06T11:59:55.804Z,2.58
2024-02-06T12:03:01.685Z,2.00
2024-02-06T12:15:32.654Z,1.98
2024-02-06T12:18:35.237Z,1.92
2024-02-06T12:21:37.714Z,2.65
2024-02-06T12:27:57.809Z,2.40
2024-02-06T12:31:01.871Z,1.80
2024-02-06T12:34:08.368Z,2.10
2024-02-06T12:37:14.156Z,2.28
2024-02-06T12:40:20.573Z,1.90
2024-02-06T12:43:23.288Z,2.00
2024-02-06T12:46:25.774Z,1.65
2024-02-06T12:49:28.948Z,2.25
2024-02-06T12:58:41.543Z,2.00
2024-02-06T13:01:44.442Z,1.90
2024-02-06T13:04:47.019Z,2.03
2024-02-06T13:07:49.746Z,1.10
2024-02-06T13:10:52.204Z,1.55
2024-02-06T13:13:56.666Z,2.17
2024-02-06T13:17:00.078Z,1.65
2024-02-06T13:20:11.541Z,1.80
2024-02-06T13:23:17.463Z,1.40
2024-02-06T13:26:23.384Z,1.75
2024-02-06T13:29:26.738Z,0.95
2024-02-06T13:32:29.358Z,1.20
2024-02-06T13:35:31.614Z,1.08
2024-02-06T13:38:34.340Z,1.25
2024-02-06T13:41:38.330Z,1.02
2024-02-06T13:44:41.759Z,1.33
2024-02-06T13:47:46.824Z,2.00
2024-02-06T13:50:49.577Z,0.98
2024-02-06T13:53:51.878Z,1.27
2024-02-06T13:56:55.919Z,0.98
2024-02-06T13:59:58.218Z,1.08
2024-02-06T14:03:00.714Z,1.45
2024-02-06T14:06:03.993Z,2.20
2024-02-06T14:09:06.420Z,1.67
2024-02-06T14:12:09.461Z,1.40
2024-02-06T14:15:11.611Z,1.23
2024-02-06T14:18:14.081Z,1.35
2024-02-06T14:21:16.421Z,1.15
2024-02-06T14:24:19.091Z,1.10
2024-02-06T14:27:23.105Z,0.70
2024-02-06T14:30:25.758Z,0.88
2024-02-06T14:33:28.139Z,0.20
2024-02-06T14:36:31.879Z,0.50
2024-02-06T14:39:34.273Z,0.25
2024-02-06T14:42:37.272Z,0.40
2024-02-06T14:45:39.532Z,0.50
2024-02-06T14:48:42.430Z,0.93
2024-02-06T14:51:44.692Z,0.30
2024-02-06T14:54:47.178Z,0.57
2024-02-06T14:57:49.401Z,0.60
2024-02-06T15:00:52.083Z,0.70
2024-02-06T15:03:57.232Z,0.80
2024-02-06T15:07:00.180Z,0.50
2024-02-06T15:10:02.768Z,0.77
2024-02-06T15:13:05.797Z,0.65
2024-02-06T15:16:08.546Z,0.88
2024-02-06T15:19:11.274Z,0.32
2024-02-06T15:22:13.968Z,0.30
2024-02-06T15:25:16.752Z,0.25
2024-02-06T15:28:18.983Z,0.20
2024-02-06T15:31:21.688Z,0.30
2024-02-06T15:34:26.617Z,0.40
2024-02-06T15:37:29.202Z,0.32
2024-02-06T15:40:31.616Z,0.30
2024-02-06T15:43:34.282Z,0.68
2024-02-06T15:46:36.538Z,1.05
2024-02-06T15:49:39.215Z,0.10
2024-02-06T15:52:42.281Z,0.55
2024-02-06T15:55:44.988Z,0.22
2024-02-06T15:58:47.393Z,0.25
2024-02-06T16:01:50.290Z,0.50
2024-02-06T16:04:53.041Z,0.17
2024-02-06T16:07:55.412Z,0.43
2024-02-06T16:10:58.097Z,0.37
2024-02-06T16:14:00.449Z,0.43
2024-02-06T16:17:04.569Z,0.85
2024-02-06T16:20:10.870Z,0.52
2024-02-06T16:23:13.501Z,0.62
2024-02-06T16:26:16.993Z,1.25
2024-02-06T16:29:19.549Z,0.30
2024-02-06T16:32:21.738Z,0.85
2024-02-06T16:35:24.416Z,0.50
2024-02-06T16:38:26.882Z,0.43
2024-02-06T16:41:31.017Z,1.05
2024-02-06T16:44:33.974Z,0.55
2024-02-06T16:47:36.612Z,0.70
2024-02-06T16:50:38.927Z,1.00
2024-02-06T16:53:43.197Z,0.35
2024-02-06T16:56:45.396Z,0.40
2024-02-06T16:59:48.385Z,0.35
2024-02-06T17:02:50.588Z,0.25
2024-02-06T17:05:53.501Z,0.45
